Time;durP1;ratioP1;P1;durP2;ratioP2;P2;SDS_P1;SDS_P2;PMS_P1;PMS_P2;Temp;Humidity;BMP_temperature;BMP_pressure;BME280_temperature;BME280_humidity;BME280_pressure;Samples;Min_cycle;Max_cycle;Signal;HPM_P1;HPM_P2
2022/09/02 01:09:15;;;;;;;6.93;3.30;;;;;14.50;101003.00;;;;13173684;22;20174;-74
2022/09/02 01:14:16;;;;;;;5.43;2.90;;;;;14.40;101010.00;;;;13105240;22;20680;-74
2022/09/02 01:19:26;;;;;;;3.97;2.80;;;;;14.40;101000.00;;;;13155229;22;20801;-74
2022/09/02 01:24:31;;;;;;;8.03;3.50;;;;;14.40;101009.00;;;;13153816;22;20256;-74
2022/09/02 01:29:33;;;;;;;7.57;2.93;;;;;14.40;101002.00;;;;13106193;22;20210;-74
2022/09/02 01:34:35;;;;;;;4.23;2.93;;;;;14.30;101003.00;;;;13154044;22;20228;-74
2022/09/02 01:39:37;;;;;;;4.73;2.50;;;;;14.20;100996.00;;;;13107660;22;20712;-74
2022/09/02 01:44:42;;;;;;;3.80;3.13;;;;;14.20;100993.00;;;;13132108;22;20614;-74
2022/09/02 01:49:45;;;;;;;6.30;2.57;;;;;14.10;100990.00;;;;13128960;22;20573;-74
2022/09/02 01:54:47;;;;;;;3.87;2.97;;;;;14.00;100992.00;;;;13080372;22;20182;-74
2022/09/02 01:59:48;;;;;;;3.57;3.10;;;;;13.90;100990.00;;;;13081441;22;20250;-74
2022/09/02 02:04:51;;;;;;;5.67;3.80;;;;;13.80;100984.00;;;;13102039;22;20215;-74
2022/09/02 02:09:53;;;;;;;8.93;3.90;;;;;13.70;100982.00;;;;13055009;22;20491;-74
2022/09/02 02:14:54;;;;;;;4.70;3.37;;;;;13.60;100985.00;;;;13079499;22;20170;-74
2022/09/02 02:19:57;;;;;;;3.93;3.20;;;;;13.60;100978.00;;;;13107007;22;20179;-74
2022/09/02 02:24:59;;;;;;;4.73;3.00;;;;;13.50;100979.00;;;;13079956;22;20252;-74
2022/09/02 02:30:05;;;;;;;5.93;4.23;;;;;13.50;100976.00;;;;13105408;22;20651;-74
2022/09/02 02:35:07;;;;;;;6.30;3.23;;;;;13.40;100974.00;;;;13180533;22;20163;-74
2022/09/02 02:40:10;;;;;;;5.10;3.43;;;;;13.30;100976.00;;;;13102154;22;20163;-74
2022/09/02 02:45:12;;;;;;;7.87;3.40;;;;;13.20;100973.00;;;;13104523;22;20193;-74
2022/09/02 02:50:19;;;;;;;6.07;3.53;;;;;13.20;100971.00;;;;13153224;22;20262;-74
2022/09/02 02:55:22;;;;;;;4.97;3.50;;;;;13.20;100976.00;;;;13079625;22;20663;-74
2022/09/02 03:00:27;;;;;;;6.53;3.80;;;;;13.10;100971.00;;;;13080347;22;20179;-74
2022/09/02 03:05:29;;;;;;;6.97;3.50;;;;;13.10;100972.00;;;;13127341;22;20170;-74
2022/09/02 03:10:32;;;;;;;6.17;4.20;;;;;13.00;100981.00;;;;13105055;22;20194;-74
2022/09/02 03:15:33;;;;;;;7.70;3.50;;;;;12.90;100973.00;;;;13079344;22;20888;-74
2022/09/02 03:20:35;;;;;;;6.13;4.07;;;;;12.90;100973.00;;;;13080198;22;20256;-74
2022/09/02 03:25:42;;;;;;;4.67;4.00;;;;;12.80;100966.00;;;;13104395;22;20217;-74
2022/09/02 03:30:50;;;;;;;4.27;3.60;;;;;12.80;100965.00;;;;13151750;22;20198;-74
2022/09/02 03:35:53;;;;;;;5.00;3.60;;;;;12.70;100963.00;;;;13078482;22;20282;-74
2022/09/02 03:40:54;;;;;;;4.93;3.73;;;;;12.70;100961.00;;;;13079375;22;20232;-74
2022/09/02 03:45:55;;;;;;;6.33;4.30;;;;;12.70;100956.00;;;;13077849;22;20282;-74
2022/09/02 03:50:57;;;;;;;5.27;4.63;;;;;12.70;100958.00;;;;13079050;22;20248;-74
2022/09/02 03:56:07;;;;;;;4.73;4.27;;;;;12.60;100954.00;;;;13128248;22;20168;-74
2022/09/02 04:01:18;;;;;;;4.67;3.87;;;;;12.50;100947.00;;;;13183421;22;20750;-74
2022/09/02 04:06:23;;;;;;;6.70;4.20;;;;;12.50;100950.00;;;;13080118;22;20194;-74
2022/09/02 04:11:29;;;;;;;4.20;3.80;;;;;12.40;100953.00;;;;13080729;22;20199;-76
2022/09/02 04:16:32;;;;;;;6.97;4.90;;;;;12.40;100947.00;;;;13081232;22;20246;-74
2022/09/02 04:21:40;;;;;;;6.97;4.40;;;;;12.50;100930.00;;;;13130204;22;20163;-74
2022/09/02 04:26:42;;;;;;;9.50;5.17;;;;;12.50;100930.00;;;;13102256;22;20202;-74
2022/09/02 04:31:47;;;;;;;8.10;4.40;;;;;12.60;100931.00;;;;13103148;22;20194;-74
2022/09/02 04:36:49;;;;;;;7.20;4.53;;;;;12.70;100923.00;;;;13155721;22;20621;-74
2022/09/02 04:41:53;;;;;;;4.43;3.63;;;;;12.70;100927.00;;;;13082557;22;20777;-74
2022/09/02 04:46:55;;;;;;;6.80;4.23;;;;;12.60;100927.00;;;;13080382;22;20163;-74
2022/09/02 04:51:57;;;;;;;7.53;4.80;;;;;12.60;100938.00;;;;13106704;22;20771;-74
2022/09/02 04:57:00;;;;;;;4.97;3.70;;;;;12.70;100931.00;;;;13080933;22;20805;-74
2022/09/02 05:02:03;;;;;;;5.90;4.27;;;;;12.70;100932.00;;;;13081021;22;20170;-74
2022/09/02 05:07:05;;;;;;;5.90;4.10;;;;;12.80;100936.00;;;;13153198;22;20173;-74
2022/09/02 05:12:13;;;;;;;6.07;4.17;;;;;12.90;100931.00;;;;13103339;22;20198;-74
2022/09/02 05:17:27;;;;;;;6.67;4.30;;;;;13.00;100935.00;;;;13057428;22;20243;-74
2022/09/02 05:22:29;;;;;;;6.23;4.10;;;;;13.30;100929.00;;;;13080866;22;20170;-74
2022/09/02 05:27:33;;;;;;;8.23;4.67;;;;;13.60;100940.00;;;;13055970;22;20198;-74
2022/09/02 05:32:35;;;;;;;6.63;3.70;;;;;13.80;100940.00;;;;13106580;22;20205;-74
2022/09/02 05:37:40;;;;;;;6.80;4.20;;;;;13.80;100939.00;;;;13080956;22;20187;-75
2022/09/02 05:42:42;;;;;;;7.20;4.20;;;;;13.90;100937.00;;;;13055251;22;20175;-75
2022/09/02 05:47:43;;;;;;;5.17;4.00;;;;;13.90;100931.00;;;;13127323;22;20167;-75
2022/09/02 05:52:50;;;;;;;6.73;4.97;;;;;14.20;100934.00;;;;13080301;22;20186;-75
2022/09/02 05:57:53;;;;;;;6.50;4.00;;;;;14.60;100933.00;;;;13153201;22;20163;-75
2022/09/02 06:02:57;;;;;;;6.40;3.87;;;;;14.80;100940.00;;;;13102251;22;20162;-75
2022/09/02 06:08:03;;;;;;;9.00;4.27;;;;;14.70;100939.00;;;;13128133;22;20828;-75
2022/09/02 06:13:05;;;;;;;10.33;4.50;;;;;14.70;100942.00;;;;13130811;22;20194;-75
2022/09/02 06:18:08;;;;;;;5.47;4.30;;;;;15.10;100938.00;;;;13126182;22;20173;-75
2022/09/02 06:23:15;;;;;;;5.73;4.10;;;;;15.80;100924.00;;;;13081401;22;20166;-75
2022/09/02 06:28:18;;;;;;;6.88;3.70;;;;;16.70;100920.00;;;;13127057;22;20868;-75
2022/09/02 06:33:21;;;;;;;10.05;3.55;;;;;17.50;100926.00;;;;13053133;22;20267;-75
2022/09/02 06:38:23;;;;;;;7.40;3.65;;;;;18.20;100922.00;;;;13079242;22;20166;-74
2022/09/02 06:43:26;;;;;;;10.07;3.55;;;;;18.90;100925.00;;;;13104797;22;20783;-75
2022/09/02 06:48:47;;;;;;;7.03;3.20;;;;;19.50;100928.00;;;;13104129;22;20573;-75
2022/09/02 06:53:51;;;;;;;8.75;3.60;;;;;20.10;100920.00;;;;13100467;22;20259;-76
2022/09/02 06:58:54;;;;;;;8.90;3.95;;;;;20.50;100919.00;;;;13053609;22;20175;-76
2022/09/02 07:09:29;;;;;;;8.32;3.20;;;;;21.00;100919.00;;;;13151533;22;20834;-75
2022/09/02 07:14:42;;;;;;;9.15;3.35;;;;;21.50;100922.00;;;;13100737;22;20271;-75
2022/09/02 07:19:47;;;;;;;5.65;3.03;;;;;21.80;100920.00;;;;13124817;22;20155;-75
2022/09/02 07:24:48;;;;;;;5.40;3.15;;;;;22.10;100915.00;;;;13152104;22;20783;-75
2022/09/02 07:29:50;;;;;;;5.75;3.22;;;;;22.10;100906.00;;;;13154360;22;20196;-75
2022/09/02 07:34:52;;;;;;;7.47;3.72;;;;;22.20;100910.00;;;;13081862;22;20724;-76
2022/09/02 07:39:54;;;;;;;5.03;2.72;;;;;22.40;100905.00;;;;13080771;22;20183;-75
2022/09/02 07:44:56;;;;;;;6.70;2.55;;;;;22.90;100896.00;;;;13153431;22;20679;-75
2022/09/02 07:49:58;;;;;;;6.75;3.00;;;;;23.40;100898.00;;;;13085093;22;20273;-75
2022/09/02 07:55:22;;;;;;;5.47;3.42;;;;;23.70;100887.00;;;;13130110;22;20162;-75
2022/09/02 08:00:26;;;;;;;3.75;3.10;;;;;24.00;100896.00;;;;13148268;22;20159;-75
2022/09/02 08:05:29;;;;;;;6.47;2.67;;;;;24.20;100888.00;;;;13148026;22;21012;-75
2022/09/02 08:10:32;;;;;;;5.50;2.72;;;;;24.30;100889.00;;;;13179106;22;20190;-75
2022/09/02 08:15:34;;;;;;;5.88;2.90;;;;;24.60;100901.00;;;;13104114;22;20166;-75
2022/09/02 08:20:36;;;;;;;7.20;3.05;;;;;24.60;100897.00;;;;13124143;22;20171;-75
2022/09/02 08:25:38;;;;;;;6.22;2.30;;;;;24.60;100892.00;;;;13123885;22;20367;-75
2022/09/02 08:30:39;;;;;;;5.93;2.80;;;;;25.30;100889.00;;;;13148635;22;20185;-75
2022/09/02 08:35:41;;;;;;;3.50;2.75;;;;;26.00;100882.00;;;;13074964;22;20177;-75
2022/09/02 08:40:43;;;;;;;3.03;2.70;;;;;26.50;100891.00;;;;13126487;22;20181;-75
2022/09/02 08:45:45;;;;;;;7.80;2.85;;;;;26.50;100893.00;;;;13125990;22;20173;-75
2022/09/02 08:50:49;;;;;;;8.80;2.53;;;;;27.00;100880.00;;;;13093628;22;20702;-76
2022/09/02 08:55:54;;;;;;;7.82;3.08;;;;;27.50;100878.00;;;;13090870;22;20183;-76
2022/09/02 09:01:43;;;;;;;6.55;2.65;;;;;27.90;100877.00;;;;13102454;22;20182;-76
2022/09/02 09:07:02;;;;;;;8.57;2.70;;;;;28.00;100865.00;;;;12938824;22;20170;-76
2022/09/02 09:12:40;;;;;;;7.45;2.25;;;;;28.50;100872.00;;;;13180817;22;20189;-76
2022/09/02 09:17:47;;;;;;;4.28;2.47;;;;;28.90;100865.00;;;;13152839;22;20678;-76
2022/09/02 09:22:51;;;;;;;4.90;2.70;;;;;29.20;100869.00;;;;13127391;22;20242;-76
2022/09/02 09:27:52;;;;;;;3.67;2.63;;;;;29.50;100858.00;;;;13153536;22;20183;-76
2022/09/02 09:33:03;;;;;;;5.18;3.05;;;;;29.40;100859.00;;;;13104769;22;20277;-75
2022/09/02 09:38:11;;;;;;;7.68;3.42;;;;;30.00;100847.00;;;;13152573;22;20212;-76
2022/09/02 09:43:13;;;;;;;4.75;2.63;;;;;30.40;100850.00;;;;13151410;22;20167;-76
2022/09/02 09:48:39;;;;;;;7.38;2.65;;;;;30.40;100847.00;;;;13152568;22;20172;-76
2022/09/02 09:53:38;;;;;;;5.72;2.28;;;;;30.30;100843.00;;;;13179522;22;20212;-76
2022/09/02 09:58:39;;;;;;;9.68;2.72;;;;;30.80;100830.00;;;;13126643;22;20235;-76
2022/09/02 10:03:46;;;;;;;4.15;2.30;;;;;31.20;100828.00;;;;13181132;22;20501;-76
2022/09/02 10:08:56;;;;;;;4.30;2.40;;;;;31.30;100831.00;;;;13152404;22;20260;-76
2022/09/02 10:14:03;;;;;;;2.75;2.38;;;;;31.60;100823.00;;;;13125694;22;20265;-76
2022/09/02 10:19:18;;;;;;;3.25;2.28;;;;;32.10;100822.00;;;;13152359;22;20235;-76
2022/09/02 10:24:25;;;;;;;3.80;2.15;;;;;32.00;100817.00;;;;13150894;22;20693;-76
2022/09/02 10:29:49;;;;;;;3.80;2.20;;;;;31.70;100818.00;;;;13102744;22;20633;-76
2022/09/02 10:35:07;;;;;;;8.55;1.90;;;;;32.50;100811.00;;;;13104140;22;20170;-76
2022/09/02 10:40:18;;;;;;;3.33;2.00;;;;;32.50;100791.00;;;;13103386;22;20167;-76
2022/09/02 10:45:45;;;;;;;2.22;2.03;;;;;32.90;100787.00;;;;13179645;22;20159;-76
2022/09/02 10:50:52;;;;;;;1.70;1.60;;;;;33.10;100774.00;;;;13180089;22;20205;-76
2022/09/02 10:56:04;;;;;;;5.07;1.85;;;;;33.20;100765.00;;;;13151235;22;20202;-77
2022/09/02 11:01:09;;;;;;;3.30;1.70;;;;;33.40;100773.00;;;;13125402;22;20163;-76
2022/09/02 11:06:42;;;;;;;3.70;1.90;;;;;33.20;100755.00;;;;13151009;22;20283;-76
2022/09/02 11:12:09;;;;;;;6.75;1.50;;;;;33.10;100745.00;;;;13101167;22;20198;-76
2022/09/02 11:17:27;;;;;;;2.63;1.52;;;;;32.00;100756.00;;;;13151393;22;20208;-76
2022/09/02 11:22:54;;;;;;;1.77;1.20;;;;;32.00;100749.00;;;;13125928;22;20197;-76
2022/09/02 11:28:07;;;;;;;2.75;1.58;;;;;32.00;100741.00;;;;13091318;22;20191;-76
2022/09/02 11:33:16;;;;;;;3.10;1.65;;;;;32.70;100734.00;;;;13038502;22;20286;-76
2022/09/02 11:38:35;;;;;;;1.50;1.40;;;;;33.20;100716.00;;;;13086015;22;20183;-76
2022/09/02 11:44:13;;;;;;;3.85;1.42;;;;;34.00;100717.00;;;;13064616;22;20171;-76
2022/09/02 11:49:36;;;;;;;1.83;1.38;;;;;33.80;100719.00;;;;13037417;22;20197;-76
2022/09/02 11:54:42;;;;;;;3.15;1.40;;;;;33.50;100717.00;;;;13064304;22;20226;-77
2022/09/02 11:59:49;;;;;;;3.17;1.20;;;;;33.60;100713.00;;;;13111895;22;20160;-76
2022/09/02 12:04:57;;;;;;;1.92;1.58;;;;;34.40;100701.00;;;;13064016;22;20658;-76
2022/09/02 12:10:02;;;;;;;1.27;1.20;;;;;35.10;100687.00;;;;13085253;22;20180;-75
2022/09/02 12:15:07;;;;;;;4.70;1.48;;;;;35.60;100694.00;;;;13114724;22;20160;-76
2022/09/02 12:20:10;;;;;;;1.77;1.67;;;;;35.00;100700.00;;;;13066595;22;20973;-77
2022/09/02 12:25:24;;;;;;;1.52;1.25;;;;;35.50;100701.00;;;;13063903;22;20198;-76
2022/09/02 12:31:08;;;;;;;2.42;1.05;;;;;32.50;100705.00;;;;13057116;22;20191;-76
2022/09/02 12:36:41;;;;;;;3.40;1.13;;;;;32.50;100699.00;;;;12914798;22;20175;-76
2022/09/02 12:41:43;;;;;;;2.75;1.40;;;;;31.70;100696.00;;;;13017539;22;20215;-76
2022/09/02 12:46:58;;;;;;;4.05;1.50;;;;;30.70;100698.00;;;;13113465;22;20168;-76
2022/09/02 12:52:09;;;;;;;3.53;1.23;;;;;31.30;100686.00;;;;13085146;22;20185;-75
2022/09/02 12:57:10;;;;;;;2.15;1.35;;;;;30.70;100678.00;;;;13091651;22;20171;-76
2022/09/02 13:02:49;;;;;;;1.02;0.93;;;;;30.00;100678.00;;;;13039236;22;20202;-75
2022/09/02 13:08:43;;;;;;;2.35;1.38;;;;;29.30;100667.00;;;;13110503;22;20159;-75
2022/09/02 13:14:09;;;;;;;1.48;1.30;;;;;28.90;100644.00;;;;12975787;22;20199;-75
2022/09/02 13:19:25;;;;;;;2.80;1.30;;;;;32.70;100645.00;;;;13040210;22;20175;-76
2022/09/02 13:24:50;;;;;;;2.50;1.20;;;;;34.60;100640.00;;;;13064994;22;20175;-76
2022/09/02 13:30:17;;;;;;;1.70;1.30;;;;;35.50;100626.00;;;;13020766;22;20314;-76
2022/09/02 13:35:24;;;;;;;5.30;1.33;;;;;36.60;100633.00;;;;13057356;22;20187;-76
2022/09/02 13:40:34;;;;;;;2.35;1.20;;;;;37.90;100627.00;;;;13083242;22;20400;-76
2022/09/02 13:45:36;;;;;;;3.80;1.10;;;;;38.50;100621.00;;;;13059956;22;20214;-76
2022/09/02 13:50:42;;;;;;;4.30;1.40;;;;;38.60;100613.00;;;;13113525;22;20183;-76
2022/09/02 13:55:50;;;;;;;2.28;1.13;;;;;37.00;100603.00;;;;13087586;22;20172;-76
2022/09/02 14:00:52;;;;;;;1.50;1.20;;;;;38.80;100592.00;;;;13105154;22;20697;-77
2022/09/02 14:05:56;;;;;;;2.72;1.10;;;;;39.40;100599.00;;;;13077493;22;20545;-77
2022/09/02 14:10:58;;;;;;;1.88;0.95;;;;;38.50;100592.00;;;;13108883;22;20222;-75
2022/09/02 14:16:25;;;;;;;1.15;1.00;;;;;39.10;100567.00;;;;13081053;22;20464;-75
2022/09/02 14:21:27;;;;;;;3.08;1.27;;;;;35.30;100579.00;;;;13110252;22;20202;-75
2022/09/02 14:26:37;;;;;;;3.13;1.15;;;;;32.60;100569.00;;;;13106309;22;20176;-74
2022/09/02 14:31:38;;;;;;;3.97;1.48;;;;;30.70;100569.00;;;;13083261;22;20230;-75
2022/09/02 14:36:39;;;;;;;3.20;1.30;;;;;30.40;100568.00;;;;13112745;22;20167;-75
2022/09/02 14:41:50;;;;;;;1.25;1.15;;;;;30.20;100551.00;;;;13085793;22;20706;-75
2022/09/02 14:46:56;;;;;;;1.10;1.00;;;;;33.10;100552.00;;;;13111683;22;20164;-75
2022/09/02 14:52:01;;;;;;;2.08;1.25;;;;;30.90;100554.00;;;;13085147;22;20184;-75
2022/09/02 14:57:03;;;;;;;2.25;1.50;;;;;30.40;100541.00;;;;13062712;22;20195;-75
2022/09/02 15:02:04;;;;;;;3.97;1.20;;;;;30.70;100535.00;;;;13012542;22;20221;-75
2022/09/02 15:07:06;;;;;;;2.53;1.00;;;;;29.70;100526.00;;;;13038484;22;20259;-75
2022/09/02 15:12:07;;;;;;;4.95;1.10;;;;;29.20;100524.00;;;;13110437;22;20646;-75
2022/09/02 15:17:12;;;;;;;1.40;1.30;;;;;28.80;100526.00;;;;13084839;22;20172;-75
2022/09/02 15:22:14;;;;;;;1.60;1.45;;;;;28.70;100516.00;;;;13110240;22;20735;-75
2022/09/02 15:27:16;;;;;;;4.47;1.20;;;;;28.80;100514.00;;;;13110378;22;20191;-74
2022/09/02 15:32:25;;;;;;;1.88;1.20;;;;;29.10;100508.00;;;;13081659;22;20216;-75
2022/09/02 15:37:26;;;;;;;1.95;1.13;;;;;29.10;100504.00;;;;13111717;22;20201;-75
2022/09/02 15:42:27;;;;;;;3.15;1.13;;;;;28.80;100506.00;;;;13109963;22;20167;-75
2022/09/02 15:47:29;;;;;;;2.72;1.13;;;;;28.70;100510.00;;;;13032381;22;20603;-75
2022/09/02 15:52:32;;;;;;;1.65;1.30;;;;;28.80;100513.00;;;;13016140;22;20198;-75
2022/09/02 15:57:33;;;;;;;3.00;1.20;;;;;28.80;100504.00;;;;13085613;22;20200;-75
2022/09/02 16:02:35;;;;;;;3.85;1.30;;;;;28.90;100506.00;;;;13086391;22;20792;-75
2022/09/02 16:07:36;;;;;;;4.00;1.40;;;;;28.80;100500.00;;;;13108264;22;20170;-75
2022/09/02 16:12:37;;;;;;;1.83;1.10;;;;;28.70;100486.00;;;;13038557;22;20195;-75
2022/09/02 16:17:40;;;;;;;1.20;1.00;;;;;28.60;100483.00;;;;13085447;22;20817;-75
2022/09/02 16:22:42;;;;;;;1.52;1.20;;;;;28.50;100474.00;;;;13086107;22;20170;-75
2022/09/02 16:27:52;;;;;;;3.13;1.42;;;;;28.30;100476.00;;;;13039161;22;20267;-75
2022/09/02 16:32:53;;;;;;;8.40;1.58;;;;;28.00;100470.00;;;;13115294;22;20187;-75
2022/09/02 16:37:56;;;;;;;2.00;1.30;;;;;27.80;100469.00;;;;13114070;22;20218;-75
2022/09/02 16:42:57;;;;;;;2.72;1.20;;;;;27.50;100464.00;;;;13085246;22;20174;-75
2022/09/02 16:47:59;;;;;;;1.85;1.30;;;;;27.20;100460.00;;;;13115086;22;20163;-75
2022/09/02 16:53:00;;;;;;;3.00;1.30;;;;;27.10;100467.00;;;;13039442;22;20808;-74
2022/09/02 16:58:01;;;;;;;2.17;1.30;;;;;26.90;100462.00;;;;13113083;22;20174;-74
2022/09/02 17:03:02;;;;;;;2.38;1.60;;;;;26.80;100458.00;;;;13058080;22;20174;-74
2022/09/02 17:08:05;;;;;;;1.90;1.20;;;;;26.60;100459.00;;;;13064395;22;20171;-74
2022/09/02 17:13:06;;;;;;;3.10;1.40;;;;;26.40;100455.00;;;;13010666;22;20198;-74
2022/09/02 17:18:08;;;;;;;4.13;1.65;;;;;26.20;100455.00;;;;13066172;22;20685;-74
2022/09/02 17:23:10;;;;;;;5.28;1.63;;;;;26.00;100456.00;;;;13086232;22;20646;-74
2022/09/02 17:28:11;;;;;;;3.17;1.75;;;;;25.80;100450.00;;;;13064838;22;20191;-74
2022/09/02 17:33:13;;;;;;;3.17;1.55;;;;;25.60;100456.00;;;;13061620;22;20206;-75
2022/09/02 17:38:14;;;;;;;2.65;1.23;;;;;25.50;100459.00;;;;13113280;22;20198;-74
2022/09/02 17:43:15;;;;;;;5.40;1.67;;;;;25.30;100459.00;;;;13036575;22;20167;-74
2022/09/02 17:48:21;;;;;;;5.30;1.58;;;;;25.20;100452.00;;;;13058231;22;20695;-74
2022/09/02 17:53:42;;;;;;;2.20;1.50;;;;;25.00;100459.00;;;;13061524;22;20199;-74
2022/09/02 17:58:55;;;;;;;4.90;1.60;;;;;24.80;100451.00;;;;13013787;22;20171;-74
2022/09/02 18:04:34;;;;;;;4.97;1.50;;;;;24.60;100446.00;;;;13111802;22;20258;-74
2022/09/02 18:09:37;;;;;;;3.45;1.65;;;;;24.50;100438.00;;;;13086090;22;20250;-74
2022/09/02 18:14:45;;;;;;;3.03;1.52;;;;;24.40;100444.00;;;;13037920;22;20226;-74
2022/09/02 18:20:17;;;;;;;6.05;1.48;;;;;24.20;100450.00;;;;13086909;22;20661;-74
2022/09/02 18:25:28;;;;;;;5.43;1.63;;;;;24.10;100449.00;;;;13026815;22;20191;-75
2022/09/02 18:30:49;;;;;;;6.88;1.60;;;;;24.00;100447.00;;;;13064842;22;20218;-74
2022/09/02 18:36:13;;;;;;;5.72;1.75;;;;;23.90;100446.00;;;;13063550;22;20178;-74
2022/09/02 18:41:33;;;;;;;4.10;1.80;;;;;23.80;100449.00;;;;13114985;22;20175;-74
2022/09/02 18:46:44;;;;;;;3.05;1.63;;;;;23.70;100444.00;;;;13115191;22;20498;-74
2022/09/02 18:51:47;;;;;;;3.00;1.65;;;;;23.60;100454.00;;;;13086316;22;20273;-74
2022/09/02 18:56:56;;;;;;;2.75;1.30;;;;;23.50;100452.00;;;;13086289;22;20314;-74
2022/09/02 19:02:04;;;;;;;2.92;1.30;;;;;23.40;100457.00;;;;13060298;22;20187;-74
2022/09/02 19:12:32;;;;;;;4.70;1.50;;;;;23.10;100451.00;;;;13114194;22;20187;-74
2022/09/02 19:17:34;;;;;;;4.72;1.55;;;;;22.90;100454.00;;;;13091383;22;20163;-74
2022/09/02 19:22:39;;;;;;;3.75;1.20;;;;;22.80;100459.00;;;;13111640;22;20171;-75
2022/09/02 19:27:42;;;;;;;6.85;1.52;;;;;22.60;100463.00;;;;13064042;22;20198;-74
2022/09/02 19:32:57;;;;;;;6.78;1.60;;;;;22.40;100463.00;;;;13064060;22;20202;-74
2022/09/02 19:37:59;;;;;;;2.78;1.40;;;;;22.20;100459.00;;;;13085948;22;20452;-74
2022/09/02 19:43:02;;;;;;;4.25;1.40;;;;;22.00;100461.00;;;;13037125;22;20183;-74
2022/09/02 19:48:05;;;;;;;3.40;1.60;;;;;21.90;100459.00;;;;13032008;22;20202;-74
2022/09/02 19:53:15;;;;;;;4.68;1.33;;;;;21.80;100464.00;;;;13027891;22;20210;-74
2022/09/02 19:58:16;;;;;;;1.63;1.40;;;;;21.70;100472.00;;;;13019464;22;20172;-74
2022/09/02 20:03:19;;;;;;;2.78;1.30;;;;;21.50;100463.00;;;;13058110;22;20179;-74
2022/09/02 20:08:27;;;;;;;6.75;1.50;;;;;21.40;100468.00;;;;13002339;22;20271;-74
2022/09/02 20:13:33;;;;;;;2.72;1.60;;;;;21.30;100460.00;;;;13077863;22;20190;-74
2022/09/02 20:18:45;;;;;;;3.45;1.23;;;;;21.20;100459.00;;;;13105390;22;20182;-74
2022/09/02 20:23:47;;;;;;;2.95;1.30;;;;;21.10;100451.00;;;;13104666;22;20171;-74
2022/09/02 20:28:51;;;;;;;2.88;1.30;;;;;21.00;100461.00;;;;13078281;22;20711;-74
2022/09/02 20:34:30;;;;;;;4.68;1.50;;;;;20.80;100457.00;;;;13056593;22;20199;-74
2022/09/02 20:39:56;;;;;;;4.32;1.38;;;;;20.70;100456.00;;;;13049765;22;20190;-74
2022/09/02 20:45:21;;;;;;;2.35;1.88;;;;;20.60;100448.00;;;;13110665;22;20167;-74
2022/09/02 20:50:48;;;;;;;1.85;1.58;;;;;20.60;100463.00;;;;13107355;22;20183;-74
2022/09/02 20:56:00;;;;;;;2.90;1.38;;;;;20.50;100460.00;;;;13062488;22;20250;-74
2022/09/02 21:01:06;;;;;;;3.38;1.60;;;;;20.50;100458.00;;;;13062671;22;20171;-73
2022/09/02 21:06:10;;;;;;;6.70;1.67;;;;;20.40;100467.00;;;;13087925;22;20262;-74
2022/09/02 21:11:14;;;;;;;1.83;1.30;;;;;20.30;100462.00;;;;13081459;22;20188;-74
2022/09/02 21:16:43;;;;;;;4.65;1.45;;;;;20.20;100462.00;;;;13032308;22;20171;-74
2022/09/02 21:22:08;;;;;;;4.85;1.95;;;;;20.10;100456.00;;;;13061340;22;20172;-74
2022/09/02 21:27:19;;;;;;;4.55;1.40;;;;;19.90;100451.00;;;;13037047;22;20534;-74
2022/09/02 21:32:37;;;;;;;3.03;1.50;;;;;19.80;100452.00;;;;13064521;22;20195;-74
2022/09/02 21:37:42;;;;;;;3.25;1.70;;;;;19.70;100448.00;;;;13031634;22;20179;-74
2022/09/02 21:43:25;;;;;;;3.03;1.60;;;;;19.60;100451.00;;;;13027489;22;20177;-74
2022/09/02 21:48:52;;;;;;;3.22;1.75;;;;;19.50;100460.00;;;;13006653;22;20171;-74
2022/09/02 21:53:59;;;;;;;2.95;1.77;;;;;19.50;100461.00;;;;13107034;22;20191;-74
2022/09/02 21:59:13;;;;;;;5.43;2.17;;;;;19.40;100457.00;;;;13081766;22;20224;-74
2022/09/02 22:04:53;;;;;;;5.80;1.85;;;;;19.30;100456.00;;;;13107815;22;20163;-74
2022/09/02 22:10:15;;;;;;;2.80;1.50;;;;;19.20;100461.00;;;;13028281;22;20172;-74
2022/09/02 22:15:26;;;;;;;5.82;1.80;;;;;19.10;100458.00;;;;13055551;22;20900;-74
2022/09/02 22:20:37;;;;;;;5.80;1.88;;;;;19.00;100454.00;;;;13061471;22;20516;-74
2022/09/02 22:25:39;;;;;;;2.47;1.38;;;;;18.90;100452.00;;;;13009807;22;20597;-74
2022/09/02 22:30:47;;;;;;;7.00;2.35;;;;;18.90;100453.00;;;;13083203;22;20493;-74
2022/09/02 22:35:59;;;;;;;2.47;1.80;;;;;18.80;100448.00;;;;13081792;22;20164;-74
2022/09/02 22:41:13;;;;;;;3.30;1.88;;;;;18.70;100451.00;;;;13084251;22;20208;-74
2022/09/02 22:57:53;;;;;;;3.80;1.70;;;;;18.30;100445.00;;;;13087705;22;20633;-74
2022/09/02 23:03:17;;;;;;;2.55;1.52;;;;;18.20;100437.00;;;;13060983;22;20167;-74
2022/09/02 23:08:20;;;;;;;2.63;1.92;;;;;18.10;100440.00;;;;13010750;22;20237;-74
2022/09/02 23:13:57;;;;;;;5.28;1.50;;;;;18.10;100438.00;;;;13083541;22;20203;-74
2022/09/02 23:19:37;;;;;;;3.75;1.83;;;;;18.10;100441.00;;;;13036087;22;20647;-74
2022/09/02 23:24:52;;;;;;;2.53;1.73;;;;;18.10;100432.00;;;;13012397;22;20230;-74
2022/09/02 23:29:53;;;;;;;3.47;1.88;;;;;18.10;100441.00;;;;13010604;22;20225;-74
2022/09/02 23:35:12;;;;;;;2.17;1.80;;;;;18.10;100440.00;;;;13035705;22;20199;-74
2022/09/02 23:40:31;;;;;;;3.33;1.70;;;;;18.10;100423.00;;;;13061572;22;20772;-74
2022/09/02 23:45:34;;;;;;;3.15;1.60;;;;;18.10;100423.00;;;;13083466;22;20164;-74
2022/09/02 23:51:05;;;;;;;4.75;1.95;;;;;18.20;100417.00;;;;13035204;22;20648;-74
2022/09/02 23:56:14;;;;;;;8.80;2.35;;;;;18.20;100431.00;;;;13056442;22;20163;-74
